La Cumbre, Argentina
Current Conditions -  °F | °C
As of 11:00 PM on Sunday 21 Dec 2014 (Local Time) from SAOC Reporting Station
Clear Clear  
Wind Chill: 54°   Ceiling: Unl
Heat Index: 54°   Visibility: 6mi
Dew Point: 43°   Wind: 5mph
Humidity: 67%   Direction: 270°W
Pressure: 30.03"   Gusts: NA
Location:  33.73°S, 64.17°W
Report Text: SAOC 220200Z 27004KT CAVOK 12/06 Q1017
Loading
Personal Weather Stations






























Interactive Weather Map New forecast layout! Learn more

10-Day Weather Forecast

Advertisements
Track Severe Weather on mobile